RYR5MW EGAC-EGPH
Flight info
| Callsign | RYR5MW |
|---|---|
| Flight time | 0h 32m |
| Altitude | 15000 |
| Route | BLACA P600 TUNSO |
| Aircraft | B738/M-SDE2E3FGHIRWXY/LB1 |
Departure
| Time | 2026-04-14 21:20 |
|---|---|
| Airport | George Best Belfast City Airport (EGAC) |
Arrival
| Time | 2026-04-14 21:53 |
|---|---|
| Airport | Edinburgh Airport (EGPH) |
| Time | Latitude | Longitude | Altitude | Speed | Heading |
|---|---|---|---|---|---|
| 2026-04-14 21:01 | 54.61571 | -5.87059 | 16 ft | 0 kts | 125° |
| 2026-04-14 21:12 | 54.61579 | -5.87081 | 16 ft | 4 kts | 113° |
| 2026-04-14 21:13 | 54.61584 | -5.87124 | 16 ft | 4 kts | 81° |
| 2026-04-14 21:13 | 54.61575 | -5.87166 | 19 ft | 4 kts | 49° |
| 2026-04-14 21:13 | 54.61565 | -5.87184 | 19 ft | 0 kts | 35° |
| 2026-04-14 21:15 | 54.61572 | -5.87175 | 18 ft | 3 kts | 35° |
| 2026-04-14 21:16 | 54.61608 | -5.87132 | 16 ft | 8 kts | 34° |
| 2026-04-14 21:16 | 54.61658 | -5.87072 | 16 ft | 9 kts | 34° |
| 2026-04-14 21:16 | 54.61712 | -5.87008 | 16 ft | 9 kts | 32° |
| 2026-04-14 21:16 | 54.61770 | -5.87023 | 22 ft | 10 kts | 308° |
| 2026-04-14 21:17 | 54.61815 | -5.87131 | 20 ft | 12 kts | 306° |
| 2026-04-14 21:17 | 54.61889 | -5.87150 | 23 ft | 13 kts | 27° |
| 2026-04-14 21:17 | 54.61981 | -5.87048 | 19 ft | 19 kts | 35° |
| 2026-04-14 21:17 | 54.62091 | -5.86915 | 19 ft | 20 kts | 35° |
| 2026-04-14 21:18 | 54.62202 | -5.86783 | 23 ft | 18 kts | 34° |
| 2026-04-14 21:18 | 54.62301 | -5.86669 | 23 ft | 17 kts | 34° |
| 2026-04-14 21:18 | 54.62396 | -5.86564 | 26 ft | 16 kts | 24° |
| 2026-04-14 21:18 | 54.62472 | -5.86522 | 23 ft | 9 kts | 51° |
| 2026-04-14 21:19 | 54.62443 | -5.86498 | 23 ft | 0 kts | 214° |
| 2026-04-14 21:19 | 54.62355 | -5.86600 | 24 ft | 52 kts | 214° |
| 2026-04-14 21:20 | 54.61812 | -5.87247 | 22 ft | 134 kts | 214° |
| 2026-04-14 21:20 | 54.60874 | -5.88379 | 244 ft | 182 kts | 216° |
| 2026-04-14 21:20 | 54.59814 | -5.89674 | 1017 ft | 197 kts | 215° |
| 2026-04-14 21:20 | 54.58649 | -5.91120 | 1700 ft | 212 kts | 217° |
| 2026-04-14 21:21 | 54.57389 | -5.92259 | 2676 ft | 200 kts | 191° |
| 2026-04-14 21:21 | 54.55995 | -5.92042 | 3277 ft | 213 kts | 158° |
| 2026-04-14 21:21 | 54.54713 | -5.90566 | 3633 ft | 229 kts | 141° |
| 2026-04-14 21:21 | 54.53501 | -5.88730 | 4192 ft | 235 kts | 131° |
| 2026-04-14 21:22 | 54.52866 | -5.86169 | 4792 ft | 237 kts | 92° |
| 2026-04-14 21:22 | 54.53319 | -5.83490 | 5402 ft | 239 kts | 53° |
| 2026-04-14 21:22 | 54.54571 | -5.81605 | 5968 ft | 241 kts | 38° |
| 2026-04-14 21:22 | 54.55823 | -5.79667 | 5981 ft | 242 kts | 44° |
| 2026-04-14 21:23 | 54.57007 | -5.77621 | 6003 ft | 242 kts | 45° |
| 2026-04-14 21:23 | 54.58168 | -5.75510 | 6013 ft | 244 kts | 47° |
| 2026-04-14 21:23 | 54.59313 | -5.73290 | 6099 ft | 251 kts | 48° |
| 2026-04-14 21:23 | 54.60487 | -5.70981 | 6573 ft | 265 kts | 49° |
| 2026-04-14 21:24 | 54.61732 | -5.68527 | 7144 ft | 277 kts | 49° |
| 2026-04-14 21:24 | 54.63010 | -5.66009 | 7976 ft | 280 kts | 49° |
| 2026-04-14 21:24 | 54.64300 | -5.63469 | 8802 ft | 283 kts | 48° |
| 2026-04-14 21:24 | 54.65607 | -5.60896 | 9598 ft | 287 kts | 48° |
| 2026-04-14 21:25 | 54.66913 | -5.58324 | 10344 ft | 292 kts | 48° |
| 2026-04-14 21:25 | 54.68324 | -5.55548 | 10609 ft | 316 kts | 48° |
| 2026-04-14 21:25 | 54.69810 | -5.52619 | 10808 ft | 340 kts | 49° |
| 2026-04-14 21:25 | 54.71427 | -5.49430 | 11151 ft | 356 kts | 49° |
| 2026-04-14 21:26 | 54.73084 | -5.46158 | 11796 ft | 363 kts | 49° |
| 2026-04-14 21:26 | 54.74731 | -5.42900 | 12545 ft | 365 kts | 49° |
| 2026-04-14 21:26 | 54.76433 | -5.39529 | 13280 ft | 368 kts | 49° |
| 2026-04-14 21:26 | 54.78095 | -5.36234 | 13950 ft | 372 kts | 49° |
| 2026-04-14 21:27 | 54.79814 | -5.32821 | 14613 ft | 376 kts | 49° |
| 2026-04-14 21:27 | 54.81542 | -5.29385 | 14973 ft | 378 kts | 49° |
| 2026-04-14 21:27 | 54.83290 | -5.25908 | 15000 ft | 386 kts | 49° |
| 2026-04-14 21:27 | 54.85067 | -5.22365 | 15010 ft | 391 kts | 49° |
| 2026-04-14 21:28 | 54.86858 | -5.18818 | 15006 ft | 389 kts | 47° |
| 2026-04-14 21:28 | 54.88867 | -5.15689 | 15001 ft | 388 kts | 36° |
| 2026-04-14 21:28 | 54.91160 | -5.13248 | 15001 ft | 387 kts | 26° |
| 2026-04-14 21:28 | 54.93581 | -5.11189 | 15008 ft | 387 kts | 25° |
| 2026-04-14 21:29 | 54.96006 | -5.09155 | 15008 ft | 387 kts | 25° |
| 2026-04-14 21:29 | 54.98433 | -5.07101 | 15003 ft | 388 kts | 26° |
| 2026-04-14 21:29 | 55.00855 | -5.05025 | 14999 ft | 388 kts | 26° |
| 2026-04-14 21:29 | 55.03277 | -5.02928 | 15003 ft | 388 kts | 26° |
| 2026-04-14 21:30 | 55.05697 | -5.00821 | 15001 ft | 389 kts | 26° |
| 2026-04-14 21:30 | 55.08113 | -4.98700 | 15004 ft | 389 kts | 28° |
| 2026-04-14 21:30 | 55.10312 | -4.95986 | 14997 ft | 390 kts | 44° |
| 2026-04-14 21:30 | 55.12023 | -4.92309 | 15005 ft | 390 kts | 58° |
| 2026-04-14 21:31 | 55.13232 | -4.88074 | 15008 ft | 390 kts | 66° |
| 2026-04-14 21:31 | 55.14309 | -4.83722 | 15005 ft | 390 kts | 67° |
| 2026-04-14 21:31 | 55.15364 | -4.79351 | 14997 ft | 390 kts | 67° |
| 2026-04-14 21:31 | 55.16416 | -4.74978 | 14997 ft | 390 kts | 67° |
| 2026-04-14 21:32 | 55.17473 | -4.70611 | 14998 ft | 390 kts | 67° |
| 2026-04-14 21:32 | 55.18540 | -4.66234 | 14999 ft | 391 kts | 66° |
| 2026-04-14 21:32 | 55.19609 | -4.61864 | 15001 ft | 391 kts | 66° |
| 2026-04-14 21:32 | 55.20683 | -4.57485 | 15003 ft | 391 kts | 66° |
| 2026-04-14 21:33 | 55.21754 | -4.53118 | 15000 ft | 391 kts | 66° |
| 2026-04-14 21:33 | 55.22830 | -4.48729 | 15001 ft | 391 kts | 66° |
| 2026-04-14 21:33 | 55.23903 | -4.44346 | 15005 ft | 391 kts | 66° |
| 2026-04-14 21:33 | 55.24973 | -4.39966 | 15001 ft | 391 kts | 66° |
| 2026-04-14 21:34 | 55.26042 | -4.35584 | 15000 ft | 391 kts | 66° |
| 2026-04-14 21:34 | 55.27094 | -4.31258 | 15002 ft | 391 kts | 67° |
| 2026-04-14 21:34 | 55.28158 | -4.26876 | 15000 ft | 390 kts | 67° |
| 2026-04-14 21:34 | 55.29219 | -4.22498 | 15001 ft | 390 kts | 67° |
| 2026-04-14 21:35 | 55.30282 | -4.18105 | 15001 ft | 391 kts | 67° |
| 2026-04-14 21:35 | 55.31341 | -4.13717 | 15003 ft | 391 kts | 67° |
| 2026-04-14 21:35 | 55.32401 | -4.09315 | 15002 ft | 391 kts | 67° |
| 2026-04-14 21:35 | 55.33459 | -4.04914 | 15002 ft | 391 kts | 67° |
| 2026-04-14 21:36 | 55.34515 | -4.00510 | 15001 ft | 391 kts | 67° |
| 2026-04-14 21:36 | 55.35571 | -3.96102 | 15003 ft | 391 kts | 67° |
| 2026-04-14 21:36 | 55.36622 | -3.91699 | 15001 ft | 390 kts | 67° |
| 2026-04-14 21:36 | 55.37649 | -3.87392 | 14983 ft | 375 kts | 67° |
| 2026-04-14 21:37 | 55.38639 | -3.83231 | 14961 ft | 363 kts | 67° |
| 2026-04-14 21:37 | 55.39603 | -3.79174 | 14671 ft | 357 kts | 67° |
| 2026-04-14 21:37 | 55.40546 | -3.75194 | 14608 ft | 345 kts | 67° |
| 2026-04-14 21:37 | 55.41456 | -3.71350 | 14594 ft | 338 kts | 67° |
| 2026-04-14 21:38 | 55.42370 | -3.67480 | 14688 ft | 348 kts | 67° |
| 2026-04-14 21:38 | 55.43307 | -3.63509 | 14768 ft | 353 kts | 67° |
| 2026-04-14 21:38 | 55.44244 | -3.59526 | 14769 ft | 349 kts | 67° |
| 2026-04-14 21:38 | 55.45159 | -3.55632 | 14707 ft | 339 kts | 67° |
| 2026-04-14 21:39 | 55.46043 | -3.51862 | 14627 ft | 328 kts | 67° |
| 2026-04-14 21:39 | 55.46886 | -3.48262 | 14551 ft | 315 kts | 67° |
| 2026-04-14 21:39 | 55.47701 | -3.44777 | 14431 ft | 300 kts | 67° |
| 2026-04-14 21:39 | 55.48479 | -3.41445 | 14075 ft | 293 kts | 68° |
| 2026-04-14 21:40 | 55.49265 | -3.38068 | 13586 ft | 293 kts | 68° |
| 2026-04-14 21:40 | 55.50260 | -3.34968 | 13050 ft | 292 kts | 46° |
| 2026-04-14 21:40 | 55.51868 | -3.32910 | 12547 ft | 290 kts | 28° |
| 2026-04-14 21:40 | 55.53652 | -3.31188 | 11921 ft | 294 kts | 28° |
| 2026-04-14 21:41 | 55.55462 | -3.29462 | 11308 ft | 297 kts | 28° |
| 2026-04-14 21:41 | 55.57314 | -3.27697 | 10670 ft | 299 kts | 28° |
| 2026-04-14 21:41 | 55.59151 | -3.25944 | 10071 ft | 301 kts | 28° |
| 2026-04-14 21:41 | 55.60972 | -3.24201 | 9448 ft | 302 kts | 28° |
| 2026-04-14 21:42 | 55.62823 | -3.22426 | 8823 ft | 303 kts | 28° |
| 2026-04-14 21:42 | 55.64699 | -3.20623 | 8188 ft | 303 kts | 28° |
| 2026-04-14 21:42 | 55.66552 | -3.18840 | 7571 ft | 303 kts | 28° |
| 2026-04-14 21:42 | 55.68384 | -3.17068 | 7179 ft | 295 kts | 28° |
| 2026-04-14 21:43 | 55.70236 | -3.15780 | 6979 ft | 280 kts | 14° |
| 2026-04-14 21:43 | 55.72061 | -3.14931 | 6717 ft | 270 kts | 14° |
| 2026-04-14 21:43 | 55.73803 | -3.14116 | 6466 ft | 262 kts | 14° |
| 2026-04-14 21:43 | 55.75551 | -3.13319 | 6320 ft | 260 kts | 15° |
| 2026-04-14 21:44 | 55.77311 | -3.12561 | 6080 ft | 261 kts | 14° |
| 2026-04-14 21:44 | 55.79084 | -3.11801 | 5834 ft | 263 kts | 14° |
| 2026-04-14 21:44 | 55.80873 | -3.11024 | 5638 ft | 266 kts | 14° |
| 2026-04-14 21:44 | 55.82682 | -3.10245 | 5463 ft | 268 kts | 14° |
| 2026-04-14 21:45 | 55.84485 | -3.09471 | 5270 ft | 266 kts | 14° |
| 2026-04-14 21:45 | 55.86270 | -3.08698 | 5074 ft | 263 kts | 14° |
| 2026-04-14 21:45 | 55.88036 | -3.07937 | 4879 ft | 260 kts | 14° |
| 2026-04-14 21:45 | 55.89790 | -3.07166 | 4680 ft | 259 kts | 14° |
| 2026-04-14 21:46 | 55.91522 | -3.06399 | 4517 ft | 254 kts | 14° |
| 2026-04-14 21:46 | 55.93235 | -3.05640 | 4306 ft | 255 kts | 14° |
| 2026-04-14 21:46 | 55.94962 | -3.04867 | 4087 ft | 257 kts | 14° |
| 2026-04-14 21:46 | 55.96707 | -3.04085 | 3893 ft | 258 kts | 14° |
| 2026-04-14 21:47 | 55.98450 | -3.03311 | 3699 ft | 258 kts | 14° |
| 2026-04-14 21:47 | 56.00179 | -3.02545 | 3477 ft | 252 kts | 14° |
| 2026-04-14 21:47 | 56.01839 | -3.01887 | 3249 ft | 245 kts | 5° |
| 2026-04-14 21:47 | 56.03466 | -3.02404 | 3034 ft | 229 kts | 324° |
| 2026-04-14 21:48 | 56.04430 | -3.04441 | 3002 ft | 208 kts | 279° |
| 2026-04-14 21:48 | 56.04386 | -3.06873 | 3025 ft | 194 kts | 246° |
| 2026-04-14 21:48 | 56.04025 | -3.09202 | 3010 ft | 199 kts | 250° |
| 2026-04-14 21:48 | 56.03573 | -3.11460 | 2989 ft | 187 kts | 238° |
| 2026-04-14 21:49 | 56.03011 | -3.13497 | 2945 ft | 177 kts | 236° |
| 2026-04-14 21:49 | 56.02414 | -3.15384 | 2778 ft | 174 kts | 233° |
| 2026-04-14 21:49 | 56.01786 | -3.17246 | 2548 ft | 175 kts | 233° |
| 2026-04-14 21:49 | 56.01164 | -3.19078 | 2304 ft | 170 kts | 232° |
| 2026-04-14 21:50 | 56.00584 | -3.20847 | 2071 ft | 160 kts | 231° |
| 2026-04-14 21:50 | 56.00012 | -3.22483 | 1887 ft | 152 kts | 231° |
| 2026-04-14 21:50 | 55.99483 | -3.24028 | 1682 ft | 143 kts | 231° |
| 2026-04-14 21:50 | 55.98965 | -3.25548 | 1490 ft | 145 kts | 231° |
| 2026-04-14 21:51 | 55.98434 | -3.27109 | 1292 ft | 148 kts | 233° |
| 2026-04-14 21:51 | 55.97895 | -3.28694 | 1073 ft | 150 kts | 233° |
| 2026-04-14 21:51 | 55.97357 | -3.30295 | 857 ft | 153 kts | 235° |
| 2026-04-14 21:51 | 55.96806 | -3.31950 | 658 ft | 156 kts | 237° |
| 2026-04-14 21:52 | 55.96259 | -3.33619 | 457 ft | 155 kts | 234° |
| 2026-04-14 21:52 | 55.95687 | -3.35242 | 208 ft | 153 kts | 236° |
| 2026-04-14 21:52 | 55.95149 | -3.36810 | 113 ft | 137 kts | 237° |
| 2026-04-14 21:52 | 55.94760 | -3.37951 | 112 ft | 78 kts | 238° |
| 2026-04-14 21:53 | 55.94571 | -3.38508 | 112 ft | 38 kts | 239° |
| 2026-04-14 21:53 | 55.94448 | -3.38866 | 112 ft | 31 kts | 238° |
| 2026-04-14 21:53 | 55.94343 | -3.38926 | 113 ft | 17 kts | 147° |
| 2026-04-14 21:53 | 55.94292 | -3.38773 | 115 ft | 16 kts | 70° |
| 2026-04-14 21:54 | 55.94347 | -3.38605 | 113 ft | 15 kts | 59° |
| 2026-04-14 21:54 | 55.94400 | -3.38444 | 112 ft | 15 kts | 59° |
| 2026-04-14 21:54 | 55.94451 | -3.38292 | 115 ft | 14 kts | 59° |
| 2026-04-14 21:54 | 55.94498 | -3.38150 | 115 ft | 13 kts | 58° |
| 2026-04-14 21:55 | 55.94545 | -3.38019 | 112 ft | 12 kts | 57° |
| 2026-04-14 21:55 | 55.94588 | -3.37892 | 112 ft | 11 kts | 59° |
| 2026-04-14 21:55 | 55.94627 | -3.37774 | 114 ft | 10 kts | 59° |
| 2026-04-14 21:55 | 55.94664 | -3.37666 | 114 ft | 11 kts | 58° |
| 2026-04-14 21:56 | 55.94707 | -3.37539 | 114 ft | 14 kts | 58° |
| 2026-04-14 21:56 | 55.94762 | -3.37380 | 114 ft | 16 kts | 59° |
| 2026-04-14 21:56 | 55.94801 | -3.37264 | 114 ft | 16 kts | 59° |
| 2026-04-14 21:56 | 55.94858 | -3.37094 | 113 ft | 15 kts | 58° |
| 2026-04-14 21:57 | 55.94906 | -3.36956 | 113 ft | 12 kts | 59° |
| 2026-04-14 21:57 | 55.94908 | -3.36819 | 113 ft | 12 kts | 131° |
| 2026-04-14 21:57 | 55.94831 | -3.36779 | 115 ft | 9 kts | 178° |
| 2026-04-14 21:57 | 55.94776 | -3.36767 | 115 ft | 8 kts | 156° |
| 2026-04-14 21:58 | 55.94725 | -3.36737 | 115 ft | 5 kts | 178° |
| 2026-04-14 21:58 | 55.94702 | -3.36715 | 114 ft | 4 kts | 115° |
| 2026-04-14 21:58 | 55.94702 | -3.36663 | 115 ft | 4 kts | 91° |
| 2026-04-14 21:58 | 55.94702 | -3.36624 | 115 ft | 1 kts | 89° |
| 2026-04-14 21:59 | 55.94702 | -3.36615 | 115 ft | 0 kts | 89° |
| 2026-04-14 21:59 | 55.94702 | -3.36614 | 115 ft | 0 kts | 89° |
| 2026-04-14 21:59 | 55.94702 | -3.36605 | 115 ft | 1 kts | 89° |
| 2026-04-14 21:59 | 55.94702 | -3.36603 | 115 ft | 0 kts | 89° |